Time;durP1;ratioP1;P1;durP2;ratioP2;P2;SDS_P1;SDS_P2;PMS_P1;PMS_P2;Temp;Humidity;BMP_temperature;BMP_pressure;BME280_temperature;BME280_humidity;BME280_pressure;Samples;Min_cycle;Max_cycle;Signal;HPM_P1;HPM_P2
2023/08/30 00:00:22;;;;;;;0.32;0.30;;;29.40;56.00;;;;;;6243796;23;20158;-86
2023/08/30 00:02:50;;;;;;;2.05;0.88;;;29.40;56.10;;;;;;6244298;23;20209;-86
2023/08/30 00:05:19;;;;;;;1.17;0.77;;;29.40;56.20;;;;;;6243878;23;20255;-86
2023/08/30 00:07:48;;;;;;;3.35;0.88;;;29.40;56.20;;;;;;6243375;23;20543;-85
2023/08/30 00:10:16;;;;;;;0.90;0.85;;;29.40;56.10;;;;;;6241226;23;20576;-86
2023/08/30 00:12:45;;;;;;;0.40;0.40;;;29.30;56.10;;;;;;6243707;23;20178;-86
2023/08/30 00:15:16;;;;;;;0.52;0.52;;;29.40;56.10;;;;;;6243513;23;20162;-86
2023/08/30 00:17:45;;;;;;;1.10;1.00;;;29.30;56.10;;;;;;6243737;23;20607;-85
2023/08/30 00:20:13;;;;;;;0.43;0.43;;;29.30;56.00;;;;;;6244102;23;20321;-87
2023/08/30 00:22:42;;;;;;;0.88;0.50;;;29.30;56.00;;;;;;6244582;23;20167;-86
2023/08/30 00:25:11;;;;;;;1.20;0.63;;;29.30;56.40;;;;;;6244153;23;20195;-86
2023/08/30 00:27:40;;;;;;;0.40;0.40;;;29.30;56.40;;;;;;6241995;23;20195;-88
2023/08/30 00:30:09;;;;;;;0.70;0.70;;;29.20;56.60;;;;;;6275276;22;20228;-86
2023/08/30 00:32:40;;;;;;;2.05;1.00;;;29.10;56.70;;;;;;6276231;22;20245;-87
2023/08/30 00:35:09;;;;;;;0.82;0.68;;;29.10;56.80;;;;;;6248709;22;20154;-85
2023/08/30 00:37:38;;;;;;;1.02;0.90;;;29.10;56.70;;;;;;6274848;22;20173;-86
2023/08/30 00:40:08;;;;;;;8.82;0.98;;;29.10;56.70;;;;;;6274930;22;20166;-85
2023/08/30 00:42:36;;;;;;;3.35;1.50;;;29.10;56.70;;;;;;6274944;22;20492;-86
2023/08/30 00:45:06;;;;;;;0.35;0.35;;;29.00;56.90;;;;;;6274137;22;20268;-86
2023/08/30 00:47:35;;;;;;;0.65;0.65;;;29.00;57.50;;;;;;6299696;22;20204;-87
2023/08/30 00:50:06;;;;;;;0.73;0.73;;;29.00;56.80;;;;;;6304824;22;20645;-87
2023/08/30 00:52:35;;;;;;;4.03;1.83;;;28.90;57.00;;;;;;6307208;22;20169;-87
2023/08/30 00:55:04;;;;;;;1.95;1.20;;;28.90;57.00;;;;;;6304601;22;20510;-86
2023/08/30 00:57:33;;;;;;;1.27;0.65;;;28.90;56.90;;;;;;6306269;22;20493;-86
2023/08/30 01:00:03;;;;;;;0.30;0.30;;;28.80;56.90;;;;;;6304728;22;20188;-87
2023/08/30 01:02:32;;;;;;;2.30;1.33;;;28.80;56.70;;;;;;6305864;22;20176;-87
2023/08/30 01:05:01;;;;;;;1.05;0.50;;;28.80;56.70;;;;;;6305092;22;20169;-87
2023/08/30 01:07:31;;;;;;;0.30;0.30;;;28.80;56.80;;;;;;6306425;22;20222;-86
2023/08/30 01:09:59;;;;;;;0.57;0.57;;;28.80;56.80;;;;;;6304730;22;20172;-88
2023/08/30 01:12:36;;;;;;;0.75;0.70;;;28.80;56.70;;;;;;6304849;22;20192;-86
2023/08/30 01:15:10;;;;;;;0.40;0.40;;;28.70;56.60;;;;;;6305347;22;20802;-87
2023/08/30 01:17:42;;;;;;;0.75;0.45;;;28.70;57.20;;;;;;6304832;22;20153;-86
2023/08/30 01:20:16;;;;;;;0.25;0.25;;;28.70;56.60;;;;;;6305153;22;20240;-86
2023/08/30 01:22:55;;;;;;;0.47;0.40;;;28.70;57.20;;;;;;6306590;22;20161;-86
2023/08/30 01:25:34;;;;;;;0.38;0.38;;;28.70;56.60;;;;;;6304996;22;20189;-87
2023/08/30 01:28:06;;;;;;;0.70;0.32;;;28.70;56.70;;;;;;6303388;22;20265;-87
2023/08/30 01:30:38;;;;;;;0.57;0.50;;;28.60;56.70;;;;;;6305326;22;20163;-88
2023/08/30 01:33:08;;;;;;;0.55;0.55;;;28.60;56.60;;;;;;6278522;22;20181;-88
2023/08/30 01:35:40;;;;;;;0.30;0.30;;;28.60;56.60;;;;;;6305996;22;20574;-87
2023/08/30 01:38:10;;;;;;;1.65;0.50;;;28.60;56.70;;;;;;6304696;22;20172;-87
2023/08/30 01:40:42;;;;;;;0.40;0.40;;;28.60;56.60;;;;;;6278349;22;20670;-87
2023/08/30 01:43:13;;;;;;;0.95;0.88;;;28.50;56.60;;;;;;6276523;22;20176;-87
2023/08/30 01:45:44;;;;;;;0.50;0.50;;;28.50;56.60;;;;;;6304927;22;20172;-86
2023/08/30 01:48:16;;;;;;;1.13;0.52;;;28.50;56.60;;;;;;6278026;22;20181;-88
2023/08/30 01:50:45;;;;;;;0.50;0.50;;;28.50;56.70;;;;;;6304569;22;20212;-86
2023/08/30 01:53:15;;;;;;;1.02;0.50;;;28.50;56.70;;;;;;6304881;22;20199;-87
2023/08/30 01:55:44;;;;;;;0.30;0.30;;;28.40;56.60;;;;;;6306238;22;20189;-86
2023/08/30 01:58:14;;;;;;;0.35;0.35;;;28.40;57.30;;;;;;6303904;22;20165;-87
2023/08/30 02:00:43;;;;;;;0.77;0.40;;;28.40;56.60;;;;;;6304057;22;20165;-87
2023/08/30 02:03:12;;;;;;;0.20;0.20;;;28.40;56.70;;;;;;6305769;22;20172;-87
2023/08/30 02:05:49;;;;;;;0.40;0.30;;;28.40;56.70;;;;;;6305536;22;20165;-87
2023/08/30 02:08:21;;;;;;;0.50;0.47;;;28.40;56.70;;;;;;6305423;22;20185;-86
2023/08/30 02:10:56;;;;;;;0.88;0.43;;;28.40;56.80;;;;;;6303973;22;20658;-87
2023/08/30 02:13:30;;;;;;;2.83;1.58;;;28.40;57.00;;;;;;6277523;22;20247;-86
2023/08/30 02:16:02;;;;;;;0.73;0.70;;;28.30;57.10;;;;;;6304933;22;20481;-88
2023/08/30 02:18:30;;;;;;;0.85;0.40;;;28.30;57.10;;;;;;6304086;22;20232;-87
2023/08/30 02:21:02;;;;;;;0.30;0.30;;;28.30;57.10;;;;;;6304954;22;20211;-88
2023/08/30 02:23:31;;;;;;;0.22;0.22;;;28.30;57.10;;;;;;6304830;22;20177;-88
2023/08/30 02:26:04;;;;;;;1.23;0.45;;;28.30;57.20;;;;;;6305142;22;20211;-87
2023/08/30 02:28:34;;;;;;;0.30;0.20;;;28.30;57.20;;;;;;6303877;22;20211;-88
2023/08/30 02:31:03;;;;;;;0.60;0.45;;;28.20;57.10;;;;;;6305266;22;20473;-87
2023/08/30 02:33:31;;;;;;;1.48;0.77;;;28.20;57.10;;;;;;6305536;22;20169;-86
2023/08/30 02:36:00;;;;;;;0.75;0.60;;;28.20;57.10;;;;;;6303787;22;20165;-88
2023/08/30 02:38:28;;;;;;;0.22;0.22;;;28.20;57.10;;;;;;6304549;22;20555;-87
2023/08/30 02:40:57;;;;;;;0.43;0.43;;;28.20;57.10;;;;;;6304416;22;20240;-88
2023/08/30 02:43:25;;;;;;;0.30;0.30;;;28.20;57.10;;;;;;6305008;22;20165;-87
2023/08/30 02:45:56;;;;;;;0.40;0.40;;;28.20;57.20;;;;;;6304055;22;20200;-88
2023/08/30 02:48:24;;;;;;;0.70;0.70;;;28.10;57.20;;;;;;6277826;22;20567;-88
2023/08/30 02:50:53;;;;;;;0.75;0.65;;;28.10;57.20;;;;;;6304050;22;20172;-87
2023/08/30 02:53:22;;;;;;;0.50;0.50;;;28.10;57.20;;;;;;6305086;22;20167;-86
2023/08/30 02:55:50;;;;;;;0.90;0.60;;;28.10;57.30;;;;;;6304488;22;20184;-87
2023/08/30 02:58:18;;;;;;;0.32;0.32;;;28.10;57.40;;;;;;6304296;22;20226;-88
2023/08/30 03:00:47;;;;;;;1.38;0.65;;;28.00;57.40;;;;;;6303668;22;20176;-87
2023/08/30 03:03:17;;;;;;;1.30;0.52;;;28.00;57.40;;;;;;6278108;22;20227;-87
2023/08/30 03:05:45;;;;;;;0.30;0.30;;;28.00;57.50;;;;;;6304448;22;20172;-87
2023/08/30 03:08:17;;;;;;;0.45;0.45;;;28.00;57.50;;;;;;6304145;22;20157;-86
2023/08/30 03:10:46;;;;;;;1.20;0.70;;;28.00;57.60;;;;;;6303934;22;20165;-87
2023/08/30 03:13:14;;;;;;;1.90;0.35;;;27.90;57.70;;;;;;6303212;22;20165;-87
2023/08/30 03:15:43;;;;;;;0.32;0.30;;;27.90;57.70;;;;;;6304259;22;20522;-86
2023/08/30 03:18:12;;;;;;;0.52;0.45;;;27.90;57.70;;;;;;6304051;22;20161;-88
2023/08/30 03:20:42;;;;;;;2.50;0.50;;;27.90;57.80;;;;;;6304372;22;20507;-88
2023/08/30 03:23:10;;;;;;;0.40;0.40;;;27.90;57.80;;;;;;6303264;22;20175;-87
2023/08/30 03:25:39;;;;;;;1.05;0.82;;;27.90;57.80;;;;;;6305363;22;20497;-87
2023/08/30 03:28:08;;;;;;;0.40;0.32;;;27.90;57.90;;;;;;6303552;22;20925;-88
2023/08/30 03:30:37;;;;;;;1.98;0.75;;;27.90;57.90;;;;;;6304055;22;20246;-87
2023/08/30 03:33:05;;;;;;;0.50;0.45;;;27.90;57.90;;;;;;6277717;22;20214;-88
2023/08/30 03:35:36;;;;;;;0.35;0.35;;;27.90;57.90;;;;;;6305475;22;20215;-87
2023/08/30 03:38:06;;;;;;;2.20;0.57;;;27.80;58.50;;;;;;6276823;22;20185;-86
2023/08/30 03:40:35;;;;;;;1.33;0.65;;;27.80;57.90;;;;;;6305528;22;20162;-87
2023/08/30 03:43:06;;;;;;;1.85;0.50;;;27.80;57.90;;;;;;6303741;22;20204;-87
2023/08/30 03:45:36;;;;;;;1.15;0.52;;;27.80;58.00;;;;;;6303651;22;20165;-86
2023/08/30 03:48:08;;;;;;;0.60;0.57;;;27.80;58.20;;;;;;6304166;22;20203;-86
2023/08/30 03:50:37;;;;;;;0.70;0.70;;;27.80;58.40;;;;;;6304773;22;20552;-87
2023/08/30 03:53:07;;;;;;;1.48;0.95;;;27.80;58.40;;;;;;6303664;22;20173;-88
2023/08/30 03:55:36;;;;;;;0.77;0.60;;;27.80;58.50;;;;;;6304350;22;20169;-88
2023/08/30 03:58:05;;;;;;;0.55;0.55;;;27.70;58.40;;;;;;6302660;22;20177;-87
2023/08/30 04:00:36;;;;;;;0.30;0.30;;;27.70;58.40;;;;;;6303428;22;20479;-89
2023/08/30 04:03:05;;;;;;;0.30;0.30;;;27.70;58.50;;;;;;6304302;22;20158;-88
2023/08/30 04:05:34;;;;;;;1.00;0.98;;;27.70;58.80;;;;;;6302651;22;20204;-88
2023/08/30 04:08:04;;;;;;;0.50;0.50;;;27.70;58.80;;;;;;6278242;22;20720;-88
2023/08/30 04:10:37;;;;;;;1.83;1.65;;;27.70;59.00;;;;;;6305578;22;20193;-88
2023/08/30 04:13:07;;;;;;;0.60;0.60;;;27.70;59.00;;;;;;6303452;22;20651;-88
2023/08/30 04:15:37;;;;;;;0.30;0.30;;;27.70;58.90;;;;;;6276917;22;20169;-88
2023/08/30 04:18:07;;;;;;;0.77;0.57;;;27.70;58.90;;;;;;6304592;22;20487;-89
2023/08/30 04:20:36;;;;;;;0.90;0.60;;;27.70;59.00;;;;;;6304895;22;20232;-88
2023/08/30 04:23:07;;;;;;;0.50;0.50;;;27.70;59.00;;;;;;6303426;22;20209;-86
2023/08/30 04:25:38;;;;;;;0.30;0.30;;;27.70;59.10;;;;;;6279058;22;20223;-88
2023/08/30 04:28:07;;;;;;;0.75;0.63;;;27.70;59.30;;;;;;6305802;22;20162;-89
2023/08/30 04:30:38;;;;;;;2.60;0.77;;;27.70;59.40;;;;;;6308288;22;20226;-90
2023/08/30 04:33:07;;;;;;;2.78;1.15;;;27.70;59.80;;;;;;6306380;22;20197;-90
2023/08/30 04:35:35;;;;;;;0.52;0.50;;;27.70;59.70;;;;;;6306547;22;20173;-88
2023/08/30 04:38:05;;;;;;;0.75;0.73;;;27.70;60.00;;;;;;6307182;22;20169;-88
2023/08/30 04:40:33;;;;;;;1.27;1.00;;;27.70;59.90;;;;;;6306679;22;20165;-90
2023/08/30 04:43:04;;;;;;;1.75;1.65;;;27.70;59.70;;;;;;6306417;22;20169;-88
2023/08/30 04:45:32;;;;;;;2.25;1.40;;;27.70;59.90;;;;;;6306883;22;20231;-91
2023/08/30 04:48:01;;;;;;;0.60;0.50;;;27.70;59.80;;;;;;6275985;22;20169;-90
2023/08/30 04:50:30;;;;;;;0.68;0.68;;;27.70;59.70;;;;;;6277220;22;20257;-91
2023/08/30 04:52:59;;;;;;;0.50;0.50;;;27.70;59.70;;;;;;6276903;22;20165;-90
2023/08/30 04:55:30;;;;;;;0.93;0.75;;;27.70;60.00;;;;;;6276024;22;20165;-91
2023/08/30 04:57:59;;;;;;;0.82;0.63;;;27.70;59.90;;;;;;6275085;22;20539;-89
2023/08/30 05:00:29;;;;;;;1.65;1.30;;;27.80;60.10;;;;;;6277514;22;20170;-90
2023/08/30 05:02:57;;;;;;;0.57;0.57;;;27.70;59.90;;;;;;6277153;22;20591;-89
2023/08/30 05:05:26;;;;;;;0.77;0.57;;;27.80;60.10;;;;;;6275710;22;20240;-87
2023/08/30 05:07:54;;;;;;;0.50;0.50;;;27.80;60.00;;;;;;6274430;22;20216;-90
2023/08/30 05:10:23;;;;;;;0.65;0.60;;;27.80;59.90;;;;;;6274743;22;20553;-89
2023/08/30 05:12:52;;;;;;;1.67;0.57;;;27.90;59.80;;;;;;6276464;22;20177;-88
2023/08/30 05:15:21;;;;;;;0.40;0.40;;;27.90;59.80;;;;;;6274777;22;20174;-88
2023/08/30 05:17:51;;;;;;;0.68;0.68;;;27.90;59.70;;;;;;6249512;22;20181;-87
2023/08/30 05:20:19;;;;;;;0.50;0.50;;;28.00;60.00;;;;;;6249762;22;20178;-90
2023/08/30 05:22:48;;;;;;;1.27;0.82;;;28.00;60.30;;;;;;6275673;22;20162;-90
2023/08/30 05:25:17;;;;;;;0.65;0.65;;;28.00;60.10;;;;;;6275158;22;20174;-87
2023/08/30 05:27:45;;;;;;;0.30;0.30;;;28.00;59.90;;;;;;6273494;22;20166;-87
2023/08/30 05:30:19;;;;;;;0.77;0.65;;;28.10;59.90;;;;;;6272881;22;20228;-89
2023/08/30 05:33:02;;;;;;;1.40;1.25;;;28.10;60.40;;;;;;6276507;22;20523;-88
2023/08/30 05:35:31;;;;;;;1.80;1.08;;;28.00;60.70;;;;;;6285929;22;20232;-88
2023/08/30 05:37:59;;;;;;;0.52;0.52;;;28.00;61.00;;;;;;6293490;22;20180;-88
2023/08/30 05:40:28;;;;;;;1.85;0.80;;;28.00;61.10;;;;;;6289374;22;20830;-86
2023/08/30 05:42:56;;;;;;;0.75;0.70;;;28.00;60.80;;;;;;6292920;22;20554;-87
2023/08/30 05:45:25;;;;;;;2.03;0.82;;;28.00;60.90;;;;;;6294129;22;20201;-88
2023/08/30 05:47:55;;;;;;;1.75;1.40;;;28.00;61.20;;;;;;6321955;22;20192;-89
2023/08/30 05:50:23;;;;;;;4.78;1.08;;;28.00;61.30;;;;;;6317967;22;20220;-87
2023/08/30 05:52:53;;;;;;;0.30;0.30;;;28.00;61.30;;;;;;6309272;22;20210;-87
2023/08/30 05:55:22;;;;;;;1.05;0.85;;;28.00;61.30;;;;;;6307435;22;20172;-88
2023/08/30 05:57:50;;;;;;;1.17;0.70;;;28.00;61.40;;;;;;6306343;22;20617;-87
2023/08/30 06:00:19;;;;;;;0.47;0.47;;;28.00;62.20;;;;;;6304258;22;20628;-87
2023/08/30 06:02:48;;;;;;;1.20;0.88;;;28.10;61.10;;;;;;6305663;22;20493;-87
2023/08/30 06:05:18;;;;;;;0.93;0.80;;;28.10;61.20;;;;;;6306564;22;20169;-89
2023/08/30 06:07:47;;;;;;;0.52;0.52;;;28.20;61.30;;;;;;6305404;22;20169;-85
2023/08/30 06:10:15;;;;;;;0.85;0.65;;;28.20;61.50;;;;;;6304337;22;20169;-87
2023/08/30 06:12:43;;;;;;;0.90;0.63;;;28.20;61.50;;;;;;6306651;22;20173;-86
2023/08/30 06:15:12;;;;;;;0.93;0.82;;;28.20;61.40;;;;;;6302480;22;20172;-86
2023/08/30 06:17:40;;;;;;;1.77;1.02;;;28.30;61.30;;;;;;6306296;22;20175;-87
2023/08/30 06:20:10;;;;;;;1.55;0.85;;;28.30;61.20;;;;;;6277938;22;20601;-87
2023/08/30 06:22:42;;;;;;;0.40;0.40;;;28.30;61.10;;;;;;6304095;22;20173;-86
2023/08/30 06:25:13;;;;;;;0.30;0.30;;;28.40;61.10;;;;;;6303639;22;20617;-83
2023/08/30 06:27:43;;;;;;;0.60;0.60;;;28.50;61.10;;;;;;6275362;22;20175;-85
2023/08/30 06:30:12;;;;;;;4.35;1.42;;;28.50;60.80;;;;;;6304137;22;20169;-83
2023/08/30 06:32:41;;;;;;;0.75;0.55;;;28.60;61.00;;;;;;6302150;22;20184;-86
2023/08/30 06:35:10;;;;;;;0.77;0.65;;;28.60;60.70;;;;;;6301225;22;20165;-85
2023/08/30 06:37:40;;;;;;;0.57;0.55;;;28.70;60.60;;;;;;6278419;22;20176;-86
2023/08/30 06:40:09;;;;;;;1.40;0.88;;;28.80;60.60;;;;;;6302281;22;20244;-85
2023/08/30 06:42:38;;;;;;;0.60;0.60;;;28.80;60.50;;;;;;6304242;22;20650;-86
2023/08/30 06:45:07;;;;;;;1.58;1.48;;;28.90;60.40;;;;;;6304818;22;20169;-87
2023/08/30 06:47:36;;;;;;;0.77;0.77;;;28.80;60.60;;;;;;6304309;22;20196;-86
2023/08/30 06:50:05;;;;;;;1.85;0.73;;;28.90;60.50;;;;;;6301361;22;20181;-85
2023/08/30 06:52:34;;;;;;;0.57;0.57;;;28.90;60.40;;;;;;6276537;22;20722;-86
2023/08/30 06:55:04;;;;;;;0.65;0.47;;;29.00;60.30;;;;;;6302787;22;20165;-84
2023/08/30 06:57:33;;;;;;;0.73;0.68;;;29.00;60.40;;;;;;6304693;22;20519;-86
2023/08/30 07:00:07;;;;;;;1.25;0.93;;;29.10;60.50;;;;;;6304208;22;20165;-87
2023/08/30 07:02:38;;;;;;;1.90;0.90;;;29.10;60.50;;;;;;6299967;22;20189;-88
2023/08/30 07:05:07;;;;;;;0.98;0.88;;;29.10;60.20;;;;;;6304552;22;20171;-87
2023/08/30 07:07:35;;;;;;;1.05;0.93;;;29.10;60.20;;;;;;6304222;22;20614;-87
2023/08/30 07:10:07;;;;;;;0.82;0.70;;;29.10;60.20;;;;;;6303093;22;20173;-86
2023/08/30 07:12:35;;;;;;;1.58;1.25;;;29.10;60.50;;;;;;6305383;22;20173;-87
2023/08/30 07:28:48;;;;;;;1.00;0.77;;;29.40;60.30;;;;;;5976190;24;20540;-88
2023/08/30 07:31:34;;;;;;;1.13;0.85;;;29.50;60.10;;;;;;6115441;23;20929;-87
2023/08/30 07:35:07;;;;;;;2.20;0.50;;;29.60;59.90;;;;;;6196176;23;20214;-89
2023/08/30 07:44:03;;;;;;;1.40;0.93;;;29.80;59.70;;;;;;6332302;22;20206;-83
2023/08/30 07:46:32;;;;;;;1.65;0.50;;;29.90;59.60;;;;;;6336773;22;20207;-84
2023/08/30 07:49:00;;;;;;;1.52;0.80;;;29.90;59.50;;;;;;6335394;22;20169;-85
2023/08/30 07:51:29;;;;;;;4.40;0.75;;;30.00;59.50;;;;;;6333657;22;20188;-87
2023/08/30 07:53:58;;;;;;;0.68;0.68;;;30.00;59.40;;;;;;6334358;22;20196;-90
2023/08/30 07:56:26;;;;;;;1.83;1.13;;;30.00;59.40;;;;;;6306131;22;20164;-85
2023/08/30 07:58:55;;;;;;;1.13;1.02;;;30.10;59.20;;;;;;6334911;22;20168;-85
2023/08/30 08:01:25;;;;;;;0.55;0.47;;;30.10;59.20;;;;;;6337171;22;20169;-87
2023/08/30 08:03:53;;;;;;;2.10;1.20;;;30.20;59.10;;;;;;6337069;22;20222;-87
2023/08/30 08:06:33;;;;;;;1.25;0.90;;;30.30;59.10;;;;;;6336254;22;20167;-92
2023/08/30 08:09:06;;;;;;;0.77;0.75;;;30.40;59.00;;;;;;6336522;22;20191;-86
2023/08/30 08:11:36;;;;;;;2.25;1.13;;;30.50;58.90;;;;;;6336702;22;20200;-86
2023/08/30 08:14:04;;;;;;;1.08;0.95;;;30.60;58.80;;;;;;6336480;22;20203;-86
2023/08/30 08:16:35;;;;;;;0.57;0.50;;;30.70;58.70;;;;;;6309869;22;20613;-85
2023/08/30 08:19:06;;;;;;;0.85;0.70;;;30.80;58.40;;;;;;6332290;22;20240;-86
2023/08/30 08:21:35;;;;;;;1.55;1.40;;;30.90;58.30;;;;;;6330298;22;20187;-86
2023/08/30 08:24:05;;;;;;;1.08;0.77;;;30.90;58.20;;;;;;6334139;22;20176;-84
2023/08/30 08:26:33;;;;;;;1.20;0.85;;;31.00;58.20;;;;;;6308382;22;20168;-87
2023/08/30 08:29:03;;;;;;;0.70;0.70;;;31.00;57.90;;;;;;6308193;22;20164;-87
2023/08/30 08:31:32;;;;;;;1.05;1.02;;;31.10;57.80;;;;;;6337318;22;20246;-87
2023/08/30 08:34:11;;;;;;;0.98;0.82;;;31.20;57.80;;;;;;6336492;22;20168;-87
2023/08/30 08:36:39;;;;;;;1.38;1.02;;;31.20;57.60;;;;;;6333268;22;20171;-88
2023/08/30 08:39:09;;;;;;;0.70;0.65;;;31.30;57.60;;;;;;6337613;22;20239;-87
2023/08/30 09:10:34;;;;;;;0.55;0.52;;;31.70;56.80;;;;;;6276160;22;20421;-88
2023/08/30 09:13:34;;;;;;;1.50;1.15;;;31.70;56.80;;;;;;6236036;22;20413;-90
2023/08/30 09:22:46;;;;;;;0.95;0.85;;;31.90;56.20;;;;;;6300708;22;20243;-87
2023/08/30 09:29:43;;;;;;;0.70;0.57;;;32.00;55.90;;;;;;6305316;22;20208;-88
2023/08/30 09:56:10;;;;;;;0.52;0.52;;;32.20;55.60;;;;;;6332154;22;20930;-84
2023/08/30 09:58:41;;;;;;;0.70;0.70;;;32.20;55.50;;;;;;6333900;22;20959;-86
2023/08/30 10:01:11;;;;;;;0.85;0.52;;;32.30;55.40;;;;;;6306202;22;20172;-88
2023/08/30 10:03:41;;;;;;;0.82;0.60;;;32.30;55.40;;;;;;6335438;22;20801;-90
2023/08/30 10:06:10;;;;;;;1.58;1.08;;;32.30;55.30;;;;;;6336278;22;20160;-86
2023/08/30 10:08:42;;;;;;;0.50;0.50;;;32.30;55.00;;;;;;6309540;22;20593;-86
2023/08/30 10:11:13;;;;;;;1.10;0.55;;;32.30;54.70;;;;;;6332547;22;20173;-87
2023/08/30 10:13:44;;;;;;;0.40;0.40;;;32.40;54.70;;;;;;6334515;22;20199;-86
2023/08/30 10:16:19;;;;;;;2.17;0.45;;;32.50;54.80;;;;;;6335019;22;20536;-85
2023/08/30 10:18:51;;;;;;;1.77;1.17;;;32.50;54.80;;;;;;6336985;22;20477;-86
2023/08/30 10:21:33;;;;;;;1.08;0.77;;;32.60;54.70;;;;;;6336165;22;20180;-86
2023/08/30 10:24:03;;;;;;;0.90;0.85;;;32.70;54.70;;;;;;6335954;22;20164;-86
2023/08/30 10:26:48;;;;;;;2.20;0.77;;;32.70;54.70;;;;;;6334201;22;20706;-87
2023/08/30 10:29:18;;;;;;;2.25;1.80;;;32.80;54.70;;;;;;6338041;22;20156;-89
2023/08/30 10:31:47;;;;;;;0.90;0.85;;;32.80;54.60;;;;;;6337005;22;20160;-87
2023/08/30 10:34:19;;;;;;;2.08;1.35;;;32.90;54.60;;;;;;6332046;22;20633;-87
2023/08/30 10:36:57;;;;;;;3.90;1.23;;;32.90;54.10;;;;;;6335833;22;20704;-86
2023/08/30 10:39:35;;;;;;;0.40;0.40;;;32.90;54.20;;;;;;6330575;22;20165;-84
2023/08/30 10:42:10;;;;;;;0.70;0.70;;;33.00;54.30;;;;;;6333087;22;20164;-88
2023/08/30 10:44:49;;;;;;;1.30;0.60;;;33.10;54.40;;;;;;6335176;22;20224;-86
2023/08/30 10:47:38;;;;;;;1.65;0.60;;;33.10;54.90;;;;;;6335207;22;20169;-86
2023/08/30 10:50:10;;;;;;;2.28;1.52;;;33.20;54.10;;;;;;6334558;22;20160;-88
2023/08/30 10:52:39;;;;;;;1.63;1.13;;;33.20;53.90;;;;;;6333923;22;20187;-86
2023/08/30 10:55:09;;;;;;;0.70;0.55;;;33.20;53.40;;;;;;6316222;22;20189;-87
2023/08/30 10:57:42;;;;;;;1.88;0.80;;;33.30;53.20;;;;;;6303857;22;20247;-88
2023/08/30 11:00:20;;;;;;;1.35;0.80;;;33.30;53.20;;;;;;6304098;22;20168;-86
2023/08/30 11:02:51;;;;;;;2.20;1.17;;;33.40;53.60;;;;;;6303245;22;20153;-86
2023/08/30 11:05:23;;;;;;;0.77;0.73;;;33.40;52.80;;;;;;6303675;22;20173;-88
2023/08/30 11:07:53;;;;;;;0.95;0.90;;;33.40;52.40;;;;;;6303360;22;20195;-86
2023/08/30 11:10:23;;;;;;;0.98;0.85;;;33.40;52.30;;;;;;6302378;22;20173;-86
2023/08/30 11:12:53;;;;;;;0.50;0.50;;;33.50;52.20;;;;;;6304482;22;20189;-84
2023/08/30 11:15:21;;;;;;;6.93;2.13;;;33.50;51.70;;;;;;6302714;22;20236;-81
2023/08/30 11:17:50;;;;;;;0.95;0.50;;;33.50;51.60;;;;;;6298868;22;20169;-85
2023/08/30 11:20:19;;;;;;;1.10;0.95;;;33.60;51.90;;;;;;6299130;22;20630;-85
2023/08/30 11:22:50;;;;;;;0.57;0.57;;;33.60;51.90;;;;;;6300371;22;20621;-89
2023/08/30 11:25:19;;;;;;;1.23;0.82;;;33.50;51.50;;;;;;6276234;22;20165;-88
2023/08/30 11:27:48;;;;;;;7.35;2.00;;;33.50;51.30;;;;;;6303636;22;20607;-87
2023/08/30 11:30:20;;;;;;;0.70;0.70;;;33.40;51.20;;;;;;6304234;22;20466;-86
2023/08/30 11:32:50;;;;;;;0.75;0.70;;;33.40;51.30;;;;;;6303356;22;20177;-85
2023/08/30 11:35:19;;;;;;;1.75;1.10;;;33.40;51.40;;;;;;6304424;22;20516;-85
2023/08/30 11:37:48;;;;;;;1.08;0.98;;;33.40;51.50;;;;;;6303570;22;20247;-85
2023/08/30 11:40:16;;;;;;;0.95;0.90;;;33.30;51.40;;;;;;6303758;22;20165;-86
2023/08/30 11:42:45;;;;;;;1.58;1.48;;;33.40;51.70;;;;;;6301851;22;20169;-87
2023/08/30 11:45:17;;;;;;;1.40;1.30;;;33.40;51.60;;;;;;6304292;22;20168;-86
2023/08/30 11:47:46;;;;;;;1.73;1.25;;;33.50;51.70;;;;;;6303924;22;20369;-86
2023/08/30 11:50:15;;;;;;;0.50;0.50;;;33.60;51.60;;;;;;6300960;22;20295;-85
2023/08/30 11:52:44;;;;;;;0.63;0.63;;;33.70;51.70;;;;;;6306588;22;20200;-86
2023/08/30 11:55:13;;;;;;;1.80;0.52;;;33.80;51.50;;;;;;6310777;22;20189;-88
2023/08/30 11:57:45;;;;;;;1.52;0.82;;;33.70;50.70;;;;;;6305074;22;20169;-86
2023/08/30 12:00:14;;;;;;;1.45;0.90;;;33.80;50.90;;;;;;6307912;22;20607;-90
2023/08/30 12:02:45;;;;;;;0.85;0.50;;;33.80;50.70;;;;;;6310566;22;20172;-90
2023/08/30 12:05:14;;;;;;;1.33;1.23;;;33.80;50.90;;;;;;6306824;22;20161;-86
2023/08/30 12:07:42;;;;;;;2.65;1.70;;;34.00;51.10;;;;;;6304783;22;20188;-85
2023/08/30 12:10:12;;;;;;;1.13;0.77;;;33.90;50.80;;;;;;6307085;22;20176;-86
2023/08/30 12:12:46;;;;;;;1.20;0.60;;;33.90;50.70;;;;;;6305629;22;20188;-87
2023/08/30 12:15:16;;;;;;;1.10;0.90;;;34.00;50.80;;;;;;6306246;22;20177;-85
2023/08/30 12:17:47;;;;;;;0.70;0.70;;;34.00;50.70;;;;;;6303531;22;20628;-85
2023/08/30 12:20:17;;;;;;;1.27;1.08;;;34.10;50.80;;;;;;6306240;22;20169;-87
2023/08/30 12:22:47;;;;;;;2.08;0.93;;;34.10;50.70;;;;;;6308084;22;20183;-92
2023/08/30 12:25:20;;;;;;;1.13;1.00;;;34.10;50.00;;;;;;6307167;22;20177;-87
2023/08/30 12:27:49;;;;;;;1.55;0.95;;;34.10;49.80;;;;;;6305480;22;20208;-86
2023/08/30 12:30:18;;;;;;;3.72;1.58;;;34.00;49.70;;;;;;6303423;22;20626;-87
2023/08/30 12:32:48;;;;;;;0.73;0.73;;;34.10;49.90;;;;;;6305689;22;20165;-85
2023/08/30 12:35:17;;;;;;;1.42;0.55;;;34.10;49.90;;;;;;6306257;22;20158;-85
2023/08/30 12:37:46;;;;;;;0.75;0.70;;;34.20;50.00;;;;;;6305911;22;20173;-87
2023/08/30 12:40:14;;;;;;;2.92;0.80;;;34.30;50.00;;;;;;6276782;22;20976;-85
2023/08/30 12:42:43;;;;;;;1.05;0.95;;;34.20;49.80;;;;;;6303714;22;20165;-86
2023/08/30 12:45:12;;;;;;;1.55;1.20;;;34.10;49.80;;;;;;6307221;22;20180;-90
2023/08/30 12:47:40;;;;;;;0.63;0.60;;;34.00;49.70;;;;;;6280267;22;20169;-88
2023/08/30 12:50:11;;;;;;;1.30;1.20;;;34.00;49.70;;;;;;6307742;22;20165;-88
2023/08/30 12:52:39;;;;;;;1.73;1.05;;;34.00;49.90;;;;;;6307631;22;20501;-88
2023/08/30 12:55:09;;;;;;;0.38;0.38;;;33.90;49.70;;;;;;6307120;22;20255;-90
2023/08/30 12:57:39;;;;;;;0.95;0.77;;;33.80;49.90;;;;;;6278502;22;20609;-84
2023/08/30 13:00:10;;;;;;;1.40;1.27;;;33.80;50.00;;;;;;6302888;22;20174;-82
2023/08/30 13:02:38;;;;;;;2.15;0.65;;;33.70;49.90;;;;;;6305254;22;20161;-83
2023/08/30 13:05:07;;;;;;;1.77;1.65;;;33.70;50.00;;;;;;6304770;22;20215;-83
2023/08/30 13:07:39;;;;;;;0.93;0.73;;;33.60;50.10;;;;;;6304450;22;20634;-83
2023/08/30 13:10:09;;;;;;;1.38;1.10;;;33.60;50.10;;;;;;6300092;22;20162;-83
2023/08/30 13:12:37;;;;;;;0.65;0.63;;;33.60;50.20;;;;;;6304748;22;20169;-82
2023/08/30 13:15:12;;;;;;;1.00;0.60;;;33.70;50.10;;;;;;6303668;22;20642;-84
2023/08/30 13:17:40;;;;;;;0.85;0.63;;;33.70;50.10;;;;;;6305037;22;20193;-85
2023/08/30 13:20:10;;;;;;;0.80;0.60;;;33.70;50.00;;;;;;6303836;22;20169;-81
2023/08/30 13:22:41;;;;;;;1.48;1.10;;;33.70;50.20;;;;;;6305369;22;20157;-84
2023/08/30 13:25:09;;;;;;;1.85;1.10;;;33.70;50.20;;;;;;6303795;22;20169;-83
2023/08/30 13:27:38;;;;;;;3.33;1.00;;;33.80;50.70;;;;;;6302385;22;20499;-84
2023/08/30 13:30:08;;;;;;;4.03;1.13;;;34.00;51.30;;;;;;6303021;22;20169;-83
2023/08/30 13:32:36;;;;;;;8.73;1.20;;;34.10;52.10;;;;;;6303824;22;20188;-85
2023/08/30 13:35:05;;;;;;;1.52;0.98;;;34.20;53.00;;;;;;6304283;22;20197;-85
2023/08/30 13:37:34;;;;;;;3.15;1.13;;;34.20;53.90;;;;;;6302392;22;20169;-86
2023/08/30 13:40:05;;;;;;;0.85;0.85;;;34.30;54.10;;;;;;6299624;22;20165;-82
2023/08/30 13:42:34;;;;;;;6.53;0.70;;;34.40;53.10;;;;;;6303669;22;20153;-83
2023/08/30 13:45:03;;;;;;;1.42;0.93;;;34.40;53.10;;;;;;6302260;22;20227;-82
2023/08/30 13:47:31;;;;;;;1.75;1.35;;;34.40;52.90;;;;;;6302781;22;20696;-82
2023/08/30 13:50:00;;;;;;;0.77;0.70;;;34.50;52.90;;;;;;6300158;22;20192;-82
2023/08/30 13:52:29;;;;;;;1.38;1.13;;;34.60;52.80;;;;;;6300560;22;20165;-83
2023/08/30 13:54:57;;;;;;;0.75;0.60;;;34.60;52.70;;;;;;6305215;22;20661;-84
2023/08/30 13:57:27;;;;;;;2.03;1.25;;;34.60;52.70;;;;;;6306587;22;20183;-85
2023/08/30 13:59:55;;;;;;;1.85;0.85;;;34.60;52.80;;;;;;6302851;22;20495;-83
2023/08/30 14:02:25;;;;;;;0.55;0.45;;;34.70;52.80;;;;;;6303458;22;20505;-87
2023/08/30 14:04:53;;;;;;;0.70;0.70;;;35.50;52.20;;;;;;6303628;22;20610;-83
2023/08/30 14:07:22;;;;;;;2.72;1.65;;;36.60;51.00;;;;;;6304507;22;20180;-86
2023/08/30 14:09:50;;;;;;;1.10;0.90;;;36.90;50.10;;;;;;6304047;22;20602;-84
2023/08/30 14:45:46;;;;;;;1.52;0.82;;;36.20;51.10;;;;;;6240662;22;20675;-89
2023/08/30 14:48:52;;;;;;;2.03;1.13;;;36.40;51.20;;;;;;6243176;23;20170;-86
2023/08/30 14:51:25;;;;;;;2.65;1.27;;;37.00;50.60;;;;;;6243022;23;20166;-85
2023/08/30 14:54:02;;;;;;;0.50;0.47;;;37.30;50.20;;;;;;6242979;23;20172;-86
2023/08/30 14:56:33;;;;;;;2.45;1.17;;;37.00;50.20;;;;;;6242803;23;20159;-86
2023/08/30 14:59:31;;;;;;;0.50;0.45;;;36.80;50.40;;;;;;6242969;23;20169;-87
2023/08/30 15:02:38;;;;;;;2.50;1.42;;;36.80;50.40;;;;;;6243799;23;20174;-87